Guatemala City, Guatemala
Current Conditions -  °F | °C
As of 5:00 PM on Friday 24 Oct 2014 (Local Time) from MGGT Reporting Station
Broken Clouds Broken Clouds  
Wind Chill: 70°   Ceiling: 1600
Heat Index: 70°   Visibility: 6mi
Dew Point: 64°   Wind: 12mph
Humidity: 83%   Direction: 20°NNE
Pressure: 30.18"   Gusts: NA
Location:  14.58°N, 90.52°W
Report Text: MGGT 242300Z 02010KT 9999 BKN016 FEW022CB BKN090 21/18 Q1022 A3018 CBE/S/SW
Loading
Personal Weather Stations






























Interactive Weather Map
Tropical Storm Tracking
New forecast layout! Learn more

10-Day Weather Forecast

Advertisements
Track Severe Weather on mobile